Time;durP1;ratioP1;P1;durP2;ratioP2;P2;SDS_P1;SDS_P2;PMS_P1;PMS_P2;Temp;Humidity;BMP_temperature;BMP_pressure;BME280_temperature;BME280_humidity;BME280_pressure;Samples;Min_cycle;Max_cycle;Signal;HPM_P1;HPM_P2
2023/04/19 00:01:53;;;;;;;;;;;332.90;2329.60;;;;;;5033972;28;19909;-71
2023/04/19 00:04:19;;;;;;;;;;;332.90;2329.60;;;;;;5033996;28;20328;-72
2023/04/19 00:06:46;;;;;;;;;;;332.90;2329.60;;;;;;5033935;28;20097;-71
2023/04/19 00:09:11;;;;;;;;;;;332.90;2329.60;;;;;;5033838;28;19905;-72
2023/04/19 00:11:37;;;;;;;;;;;332.90;2329.60;;;;;;5033803;28;20361;-72
2023/04/19 00:14:02;;;;;;;;;;;332.90;2329.60;;;;;;5033681;28;20365;-71
2023/04/19 00:16:28;;;;;;;;;;;332.90;2329.60;;;;;;5033797;28;19983;-72
2023/04/19 00:18:53;;;;;;;;;;;332.90;2329.60;;;;;;5033758;28;19905;-71
2023/04/19 00:21:19;;;;;;;;;;;332.90;2329.60;;;;;;5033706;28;19905;-72
2023/04/19 00:23:44;;;;;;;;;;;333.00;2329.60;;;;;;5033690;28;19916;-72
2023/04/19 00:26:10;;;;;;;;;;;333.00;2329.60;;;;;;5033990;28;19908;-72
2023/04/19 00:28:36;;;;;;;;;;;333.00;2329.60;;;;;;5033776;28;20376;-75
2023/04/19 00:31:01;;;;;;;;;;;333.10;2329.60;;;;;;5033438;28;20276;-72
2023/04/19 00:33:27;;;;;;;;;;;333.10;2329.60;;;;;;5033392;28;20378;-72
2023/04/19 00:35:52;;;;;;;;;;;333.10;2150.40;;;;;;5033456;28;20334;-71
2023/04/19 00:38:18;;;;;;;;;;;333.10;2099.20;;;;;;5033506;28;19912;-73
2023/04/19 00:40:43;;;;;;;;;;;333.00;2329.60;;;;;;5033228;28;19924;-74
2023/04/19 00:43:09;;;;;;;;;;;333.10;2201.60;;;;;;5030693;28;19955;-72
2023/04/19 00:45:35;;;;;;;;;;;333.10;1996.80;;;;;;5033270;28;19931;-72
2023/04/19 00:48:01;;;;;;;;;;;333.10;2329.60;;;;;;5033314;28;19909;-72
2023/04/19 00:50:27;;;;;;;;;;;333.10;2329.60;;;;;;5033035;28;19955;-72
2023/04/19 00:52:54;;;;;;;;;;;333.20;2329.60;;;;;;5033078;28;20260;-72
2023/04/19 00:55:20;;;;;;;;;;;333.20;2329.60;;;;;;5033030;28;19913;-72
2023/04/19 00:57:46;;;;;;;;;;;333.20;2329.60;;;;;;5033008;28;20371;-72
2023/04/19 01:00:12;;;;;;;;;;;333.20;2329.60;;;;;;5032824;28;19905;-72
2023/04/19 01:02:38;;;;;;;;;;;333.20;2329.60;;;;;;5033384;28;20373;-73
2023/04/19 01:05:03;;;;;;;;;;;333.20;2329.60;;;;;;5033184;28;19905;-77
2023/04/19 01:07:29;;;;;;;;;;;333.20;2329.60;;;;;;5033513;28;19912;-72
2023/04/19 01:09:54;;;;;;;;;;;333.20;2329.60;;;;;;5033411;28;19916;-72
2023/04/19 01:12:20;;;;;;;;;;;333.20;2329.60;;;;;;5032978;28;19951;-72
2023/04/19 01:14:46;;;;;;;;;;;333.20;2329.60;;;;;;5032994;28;19952;-74
2023/04/19 01:17:14;;;;;;;;;;;333.20;2329.60;;;;;;5030212;28;19909;-72
2023/04/19 01:19:41;;;;;;;;;;;333.20;2329.60;;;;;;5032763;28;20047;-72
2023/04/19 01:22:06;;;;;;;;;;;333.20;2329.60;;;;;;5032940;28;19913;-72
2023/04/19 01:24:32;;;;;;;;;;;333.20;2329.60;;;;;;5030229;28;19905;-72
2023/04/19 01:26:58;;;;;;;;;;;333.20;2329.60;;;;;;5032807;28;20312;-72
2023/04/19 01:29:23;;;;;;;;;;;333.20;2329.60;;;;;;5032731;28;19909;-72
2023/04/19 01:31:52;;;;;;;;;;;333.20;2329.60;;;;;;5032191;28;19967;-72
2023/04/19 01:34:18;;;;;;;;;;;333.20;2329.60;;;;;;5032680;28;19983;-78
2023/04/19 01:36:44;;;;;;;;;;;333.10;2329.60;;;;;;5032793;28;20277;-72
2023/04/19 01:39:10;;;;;;;;;;;333.10;2329.60;;;;;;5032408;28;20000;-72
2023/04/19 01:41:35;;;;;;;;;;;333.10;2329.60;;;;;;5032744;28;19971;-72
2023/04/19 01:44:01;;;;;;;;;;;333.10;2329.60;;;;;;5032648;28;20430;-72
2023/04/19 01:46:26;;;;;;;;;;;333.10;2329.60;;;;;;5032607;28;19909;-72
2023/04/19 01:48:52;;;;;;;;;;;333.20;2329.60;;;;;;5032538;28;19909;-72
2023/04/19 01:51:20;;;;;;;;;;;333.20;2329.60;;;;;;5033059;28;20412;-72
2023/04/19 01:53:46;;;;;;;;;;;333.20;2329.60;;;;;;5036374;28;19905;-75
2023/04/19 01:56:11;;;;;;;;;;;333.20;2329.60;;;;;;5036294;28;19920;-72
2023/04/19 01:58:37;;;;;;;;;;;333.20;2329.60;;;;;;5036426;28;19912;-72
2023/04/19 02:01:02;;;;;;;;;;;333.20;2329.60;;;;;;5036270;28;19999;-73
2023/04/19 02:03:28;;;;;;;;;;;333.10;2329.60;;;;;;5036187;28;19994;-72
2023/04/19 02:05:54;;;;;;;;;;;333.10;2329.60;;;;;;5036206;28;19927;-72
2023/04/19 02:08:19;;;;;;;;;;;333.10;2329.60;;;;;;5036145;28;20051;-72
2023/04/19 02:10:45;;;;;;;;;;;333.20;2329.60;;;;;;5036032;28;19916;-74
2023/04/19 02:13:11;;;;;;;;;;;333.10;2329.60;;;;;;5036138;28;19920;-73
2023/04/19 02:15:36;;;;;;;;;;;333.10;2329.60;;;;;;5036297;28;19999;-72
2023/04/19 02:18:05;;;;;;;;;;;333.10;2329.60;;;;;;5036474;28;19905;-72
2023/04/19 02:20:31;;;;;;;;;;;333.10;2329.60;;;;;;5036243;28;19952;-72
2023/04/19 02:22:57;;;;;;;;;;;333.00;2329.60;;;;;;5036152;28;19947;-72
2023/04/19 02:25:22;;;;;;;;;;;333.00;2329.60;;;;;;5036020;28;20350;-73
2023/04/19 02:27:48;;;;;;;;;;;332.90;2329.60;;;;;;5035884;28;20345;-72
2023/04/19 02:30:13;;;;;;;;;;;332.90;2329.60;;;;;;5035560;28;19905;-72
2023/04/19 02:32:39;;;;;;;;;;;332.90;2329.60;;;;;;5035599;28;20404;-73
2023/04/19 02:35:05;;;;;;;;;;;333.00;2329.60;;;;;;5035803;28;19916;-73
2023/04/19 02:37:31;;;;;;;;;;;332.90;2329.60;;;;;;5035671;28;19912;-77
2023/04/19 02:39:56;;;;;;;;;;;332.90;2329.60;;;;;;5035579;28;19905;-72
2023/04/19 02:42:22;;;;;;;;;;;332.90;2329.60;;;;;;5035539;28;19905;-73
2023/04/19 02:44:47;;;;;;;;;;;332.80;2329.60;;;;;;5035949;28;19905;-74
2023/04/19 02:47:13;;;;;;;;;;;332.80;2329.60;;;;;;5035565;28;19913;-72
2023/04/19 02:49:40;;;;;;;;;;;308.10;2304.00;;;;;;5032898;28;19905;-74
2023/04/19 02:52:06;;;;;;;;;;;308.10;2304.00;;;;;;5035565;28;19936;-72
2023/04/19 02:54:32;;;;;;;;;;;307.80;2304.00;;;;;;5032799;28;20350;-72
2023/04/19 02:56:57;;;;;;;;;;;308.10;2304.00;;;;;;5029235;28;19917;-72
2023/04/19 02:59:23;;;;;;;;;;;307.80;2304.00;;;;;;5038736;28;19956;-73
2023/04/19 03:01:48;;;;;;;;;;;307.80;2304.00;;;;;;5036381;28;20372;-73
2023/04/19 03:04:14;;;;;;;;;;;307.70;2304.00;;;;;;5028934;28;19917;-72
2023/04/19 03:06:40;;;;;;;;;;;307.80;2304.00;;;;;;5044817;28;19905;-71
2023/04/19 03:09:06;;;;;;;;;;;307.90;2304.00;;;;;;5039135;28;19952;-72
2023/04/19 03:11:31;;;;;;;;;;;307.90;2304.00;;;;;;5032028;28;19906;-72
2023/04/19 03:13:57;;;;;;;;;;;307.90;2304.00;;;;;;5034460;28;19917;-72
2023/04/19 03:16:23;;;;;;;;;;;307.80;2304.00;;;;;;5038718;28;19920;-72
2023/04/19 03:18:48;;;;;;;;;;;307.90;2304.00;;;;;;5027594;28;19952;-72
2023/04/19 03:21:14;;;;;;;;;;;307.80;2304.00;;;;;;5035461;28;20419;-72
2023/04/19 03:23:39;;;;;;;;;;;307.80;2304.00;;;;;;5044636;28;19912;-72
2023/04/19 03:26:05;;;;;;;;;;;307.80;2304.00;;;;;;5037467;28;19909;-73
2023/04/19 03:28:30;;;;;;;;;;;307.70;2304.00;;;;;;5038261;28;19905;-72
2023/04/19 03:30:56;;;;;;;;;;;307.70;2304.00;;;;;;5031316;28;19916;-72
2023/04/19 03:33:21;;;;;;;;;;;307.80;2304.00;;;;;;5027810;28;19928;-72
2023/04/19 03:35:47;;;;;;;;;;;307.80;2304.00;;;;;;5027538;28;19913;-72
2023/04/19 03:38:12;;;;;;;;;;;307.80;2304.00;;;;;;5028150;28;19967;-72
2023/04/19 03:40:41;;;;;;;;;;;307.70;2304.00;;;;;;5026598;28;20036;-71
2023/04/19 03:43:06;;;;;;;;;;;307.40;2304.00;;;;;;5028020;28;20269;-72
2023/04/19 03:45:32;;;;;;;;;;;307.50;2304.00;;;;;;5029959;28;19905;-72
2023/04/19 03:47:57;;;;;;;;;;;307.50;2304.00;;;;;;5021553;28;20328;-72
2023/04/19 03:50:23;;;;;;;;;;;307.50;2304.00;;;;;;5032886;28;20273;-72
2023/04/19 03:52:48;;;;;;;;;;;307.60;2304.00;;;;;;5035308;28;19912;-73
2023/04/19 03:55:14;;;;;;;;;;;307.70;2304.00;;;;;;5034863;28;19909;-72
2023/04/19 03:57:39;;;;;;;;;;;307.70;2304.00;;;;;;5034132;28;19988;-73
2023/04/19 04:00:08;;;;;;;;;;;307.60;2304.00;;;;;;5035017;28;19963;-75
2023/04/19 04:02:38;;;;;;;;;;;307.70;2304.00;;;;;;5021792;28;20336;-73
2023/04/19 04:05:04;;;;;;;;;;;307.70;2304.00;;;;;;5034598;28;19905;-72
2023/04/19 04:07:29;;;;;;;;;;;307.40;2304.00;;;;;;5034518;28;20342;-73
2023/04/19 04:09:55;;;;;;;;;;;307.30;2304.00;;;;;;5034536;28;20000;-72
2023/04/19 04:12:20;;;;;;;;;;;307.30;2304.00;;;;;;5034765;28;19952;-73
2023/04/19 04:14:46;;;;;;;;;;;307.30;2304.00;;;;;;5034026;28;20357;-72
2023/04/19 04:17:12;;;;;;;;;;;307.40;2304.00;;;;;;5034531;28;20380;-72
2023/04/19 04:19:37;;;;;;;;;;;307.50;2304.00;;;;;;5034457;28;20254;-72
2023/04/19 04:22:03;;;;;;;;;;;307.60;2304.00;;;;;;5034200;28;21371;-72
2023/04/19 04:24:31;;;;;;;;;;;307.70;2304.00;;;;;;5034454;28;19905;-73
2023/04/19 04:26:59;;;;;;;;;;;307.70;2304.00;;;;;;5034011;28;19964;-77
2023/04/19 04:29:25;;;;;;;;;;;307.80;2304.00;;;;;;5034355;28;19905;-72
2023/04/19 04:31:51;;;;;;;;;;;307.80;2304.00;;;;;;5033820;28;19917;-72
2023/04/19 04:34:16;;;;;;;;;;;307.80;2304.00;;;;;;5034410;28;19913;-76
2023/04/19 04:36:42;;;;;;;;;;;307.80;2304.00;;;;;;5033986;28;19920;-76
2023/04/19 04:39:10;;;;;;;;;;;307.70;2304.00;;;;;;5034328;28;19916;-72
2023/04/19 04:41:40;;;;;;;;;;;307.80;2304.00;;;;;;5034034;28;19967;-72
2023/04/19 04:44:05;;;;;;;;;;;307.80;2304.00;;;;;;5034236;28;19909;-72
2023/04/19 04:46:31;;;;;;;;;;;307.90;2304.00;;;;;;5034434;28;19905;-72
2023/04/19 04:48:56;;;;;;;;;;;307.90;2304.00;;;;;;5034074;28;19991;-71
2023/04/19 04:51:22;;;;;;;;;;;308.00;2304.00;;;;;;5065790;28;19959;-72
2023/04/19 04:53:47;;;;;;;;;;;307.90;2304.00;;;;;;5034158;28;19909;-72
2023/04/19 04:56:13;;;;;;;;;;;307.90;2304.00;;;;;;5033728;28;19917;-72
2023/04/19 04:58:38;;;;;;;;;;;308.00;2304.00;;;;;;5034008;28;19905;-73
2023/04/19 05:01:04;;;;;;;;;;;308.10;2304.00;;;;;;5033554;28;20391;-72
2023/04/19 05:03:30;;;;;;;;;;;308.10;2304.00;;;;;;5033770;28;19913;-72
2023/04/19 05:05:55;;;;;;;;;;;308.00;2304.00;;;;;;5033601;28;19909;-72
2023/04/19 05:08:21;;;;;;;;;;;308.00;2304.00;;;;;;5033667;28;19912;-73
2023/04/19 05:10:46;;;;;;;;;;;308.10;2304.00;;;;;;5033396;28;19912;-72
2023/04/19 05:13:12;;;;;;;;;;;308.10;2304.00;;;;;;5033708;28;19905;-78
2023/04/19 05:15:38;;;;;;;;;;;308.10;2304.00;;;;;;5033505;28;19910;-72
2023/04/19 05:18:05;;;;;;;;;;;308.10;2304.00;;;;;;5032285;28;20288;-72
2023/04/19 05:20:32;;;;;;;;;;;308.10;2304.00;;;;;;5033391;28;19992;-72
2023/04/19 05:22:59;;;;;;;;;;;308.10;2304.00;;;;;;5033456;28;19906;-78
2023/04/19 05:25:25;;;;;;;;;;;308.10;2304.00;;;;;;5033527;28;19905;-72
2023/04/19 05:27:50;;;;;;;;;;;308.10;2304.00;;;;;;5036519;28;20273;-72
2023/04/19 05:30:16;;;;;;;;;;;332.80;2329.60;;;;;;5037625;28;19905;-76
2023/04/19 05:32:41;;;;;;;;;;;332.90;2329.60;;;;;;5037711;28;20365;-75
2023/04/19 05:35:07;;;;;;;;;;;332.80;2329.60;;;;;;5037498;28;19963;-72
2023/04/19 05:37:33;;;;;;;;;;;332.90;2329.60;;;;;;5037550;28;19996;-73
2023/04/19 05:39:58;;;;;;;;;;;333.00;2329.60;;;;;;5037533;28;19909;-74
2023/04/19 05:42:24;;;;;;;;;;;332.90;2329.60;;;;;;5037402;28;20316;-72
2023/04/19 05:44:49;;;;;;;;;;;332.90;2329.60;;;;;;5037410;28;20361;-72
2023/04/19 05:47:16;;;;;;;;;;;332.90;2329.60;;;;;;5037371;28;19909;-74
2023/04/19 05:49:41;;;;;;;;;;;333.00;2329.60;;;;;;5037469;28;19968;-78
2023/04/19 05:52:07;;;;;;;;;;;332.90;2329.60;;;;;;5037267;28;19912;-76
2023/04/19 05:54:34;;;;;;;;;;;333.00;2329.60;;;;;;5036959;28;19912;-77
2023/04/19 05:57:00;;;;;;;;;;;333.00;2329.60;;;;;;5037000;28;19917;-72
2023/04/19 05:59:26;;;;;;;;;;;333.10;2329.60;;;;;;5037009;28;19909;-73
2023/04/19 06:01:52;;;;;;;;;;;333.20;2329.60;;;;;;5037077;28;19916;-72
2023/04/19 06:04:17;;;;;;;;;;;333.20;2329.60;;;;;;5036973;28;19909;-76
2023/04/19 06:06:43;;;;;;;;;;;333.20;2329.60;;;;;;5037157;28;19966;-72
2023/04/19 06:09:08;;;;;;;;;;;333.30;2329.60;;;;;;5036710;28;19905;-75
2023/04/19 06:11:34;;;;;;;;;;;333.30;2329.60;;;;;;5036824;28;19912;-73
2023/04/19 06:13:59;;;;;;;;;;;333.30;2329.60;;;;;;5036819;28;19905;-77
2023/04/19 06:16:25;;;;;;;;;;;333.30;2329.60;;;;;;5036889;28;19924;-75
2023/04/19 06:18:51;;;;;;;;;;;333.40;2329.60;;;;;;5036897;28;20391;-74
2023/04/19 06:21:16;;;;;;;;;;;333.40;2329.60;;;;;;5037060;28;19905;-74
2023/04/19 06:23:42;;;;;;;;;;;333.40;2329.60;;;;;;5036604;28;20269;-76
2023/04/19 06:26:07;;;;;;;;;;;333.40;2329.60;;;;;;5036246;28;20031;-76
2023/04/19 06:28:33;;;;;;;;;;;333.20;2329.60;;;;;;5036543;28;19913;-74
2023/04/19 06:30:59;;;;;;;;;;;333.40;2329.60;;;;;;5036425;28;19916;-75
2023/04/19 06:33:24;;;;;;;;;;;333.40;2329.60;;;;;;5036188;28;20393;-73
2023/04/19 06:35:50;;;;;;;;;;;333.40;2329.60;;;;;;5036386;28;19956;-74
2023/04/19 06:38:15;;;;;;;;;;;333.40;2329.60;;;;;;5036009;28;20364;-74
2023/04/19 06:40:41;;;;;;;;;;;333.40;2329.60;;;;;;5036613;28;19905;-76
2023/04/19 06:43:06;;;;;;;;;;;333.40;2329.60;;;;;;5036040;28;19905;-74
2023/04/19 06:45:32;;;;;;;;;;;333.50;2329.60;;;;;;5036245;28;19936;-75
2023/04/19 06:47:58;;;;;;;;;;;333.60;2329.60;;;;;;5036013;28;19912;-74
2023/04/19 06:50:23;;;;;;;;;;;333.70;2329.60;;;;;;5036198;28;19905;-74
2023/04/19 06:52:49;;;;;;;;;;;333.70;2329.60;;;;;;5035990;28;19959;-75
2023/04/19 06:55:14;;;;;;;;;;;333.70;2329.60;;;;;;5036022;28;19916;-75
2023/04/19 06:57:41;;;;;;;;;;;333.70;2329.60;;;;;;5035794;28;20277;-74
2023/04/19 07:00:07;;;;;;;;;;;358.40;2329.60;;;;;;5036199;28;20000;-76
2023/04/19 07:02:33;;;;;;;;;;;358.40;2329.60;;;;;;5035993;28;19909;-74
2023/04/19 07:04:58;;;;;;;;;;;358.40;2329.60;;;;;;5035911;28;20365;-74
2023/04/19 07:07:24;;;;;;;;;;;358.50;2329.60;;;;;;5035789;28;19912;-77
2023/04/19 07:09:49;;;;;;;;;;;358.60;2329.60;;;;;;5035710;28;19905;-75
2023/04/19 07:12:15;;;;;;;;;;;358.50;2329.60;;;;;;5035340;28;19909;-74
2023/04/19 07:14:40;;;;;;;;;;;358.70;2329.60;;;;;;5035655;28;19905;-73
2023/04/19 07:17:06;;;;;;;;;;;358.70;2329.60;;;;;;5035468;28;19959;-74
2023/04/19 07:19:31;;;;;;;;;;;358.80;2329.60;;;;;;5035722;28;19905;-75
2023/04/19 07:21:57;;;;;;;;;;;358.80;2329.60;;;;;;5035482;28;20312;-75
2023/04/19 07:24:24;;;;;;;;;;;358.80;2329.60;;;;;;5035425;28;19995;-75
2023/04/19 07:26:49;;;;;;;;;;;358.90;2329.60;;;;;;5035203;28;20372;-74
2023/04/19 07:29:15;;;;;;;;;;;358.90;2329.60;;;;;;5035425;28;19909;-74
2023/04/19 07:31:41;;;;;;;;;;;358.90;2329.60;;;;;;5035013;28;19963;-74
2023/04/19 07:34:06;;;;;;;;;;;358.90;2329.60;;;;;;5035334;28;20024;-75
2023/04/19 07:36:34;;;;;;;;;;;359.00;2329.60;;;;;;5035156;28;19912;-77
2023/04/19 07:38:59;;;;;;;;;;;359.00;2329.60;;;;;;5035346;28;19905;-75
2023/04/19 07:41:25;;;;;;;;;;;359.00;2329.60;;;;;;5035186;28;19908;-75
2023/04/19 07:43:50;;;;;;;;;;;359.10;2329.60;;;;;;5035167;28;19927;-76
2023/04/19 07:46:17;;;;;;;;;;;359.20;2329.60;;;;;;5035356;28;19968;-74
2023/04/19 07:48:42;;;;;;;;;;;359.20;2329.60;;;;;;5034765;28;20475;-76
2023/04/19 07:51:10;;;;;;;;;;;359.30;2329.60;;;;;;5034486;28;20004;-78
2023/04/19 07:53:35;;;;;;;;;;;384.00;2329.60;;;;;;5035415;28;20322;-74
2023/04/19 07:56:01;;;;;;;;;;;384.00;2329.60;;;;;;5034462;28;19913;-73
2023/04/19 07:58:26;;;;;;;;;;;384.00;2329.60;;;;;;5034718;28;19915;-76
2023/04/19 08:00:52;;;;;;;;;;;384.00;2329.60;;;;;;5034598;28;19944;-75
2023/04/19 08:03:17;;;;;;;;;;;384.10;2329.60;;;;;;5034944;28;19909;-76
2023/04/19 08:05:43;;;;;;;;;;;384.10;2329.60;;;;;;5034725;28;19905;-74
2023/04/19 08:08:09;;;;;;;;;;;384.20;2329.60;;;;;;5034925;28;20264;-73
2023/04/19 08:10:34;;;;;;;;;;;384.20;2329.60;;;;;;5034579;28;20344;-73
2023/04/19 08:13:00;;;;;;;;;;;384.30;2329.60;;;;;;5034543;28;20346;-72
2023/04/19 08:15:26;;;;;;;;;;;384.20;2329.60;;;;;;5034901;28;20246;-72
2023/04/19 08:17:51;;;;;;;;;;;384.50;2329.60;;;;;;5035659;28;19905;-73
2023/04/19 08:20:18;;;;;;;;;;;384.50;2329.60;;;;;;5034877;28;19905;-76
2023/04/19 08:22:44;;;;;;;;;;;384.60;2329.60;;;;;;5034452;28;19912;-73
2023/04/19 08:25:10;;;;;;;;;;;384.70;2329.60;;;;;;5034254;28;19928;-74
2023/04/19 08:27:35;;;;;;;;;;;384.90;2329.60;;;;;;5034248;28;20277;-77
2023/04/19 08:30:02;;;;;;;;;;;384.90;2329.60;;;;;;5034113;28;20051;-73
2023/04/19 08:32:27;;;;;;;;;;;409.60;2355.20;;;;;;5034009;28;19928;-74
2023/04/19 08:34:53;;;;;;;;;;;409.70;2355.20;;;;;;5034059;28;20277;-73
2023/04/19 08:37:19;;;;;;;;;;;409.70;2355.20;;;;;;5034301;28;19909;-73
2023/04/19 08:39:45;;;;;;;;;;;409.70;2355.20;;;;;;5034093;28;19987;-75
2023/04/19 08:42:11;;;;;;;;;;;409.70;2355.20;;;;;;5033937;28;19905;-73
2023/04/19 08:44:37;;;;;;;;;;;409.90;2355.20;;;;;;5033832;28;19905;-74
2023/04/19 08:47:03;;;;;;;;;;;410.00;2355.20;;;;;;5034331;28;20226;-73
2023/04/19 08:49:30;;;;;;;;;;;410.20;2355.20;;;;;;5033803;28;19905;-72
2023/04/19 08:51:58;;;;;;;;;;;410.30;2355.20;;;;;;5034017;28;19967;-72
2023/04/19 08:54:25;;;;;;;;;;;410.30;2355.20;;;;;;5033906;28;20271;-73
2023/04/19 08:56:51;;;;;;;;;;;410.40;2355.20;;;;;;5033813;28;19955;-76
2023/04/19 08:59:17;;;;;;;;;;;410.50;2355.20;;;;;;5033633;28;19956;-73
2023/04/19 09:01:43;;;;;;;;;;;410.50;2355.20;;;;;;5033603;28;20384;-72
2023/04/19 09:04:08;;;;;;;;;;;435.20;2355.20;;;;;;5033603;28;19955;-75
2023/04/19 09:06:34;;;;;;;;;;;435.30;2355.20;;;;;;5033813;28;19905;-73
2023/04/19 09:09:12;;;;;;;;;;;435.30;2355.20;;;;;;5033558;28;19905;-73
2023/04/19 09:11:38;;;;;;;;;;;435.20;2355.20;;;;;;5033729;28;19999;-73
2023/04/19 09:14:07;;;;;;;;;;;435.20;2355.20;;;;;;5033379;28;20329;-73
2023/04/19 09:16:34;;;;;;;;;;;410.50;2355.20;;;;;;5033616;28;19920;-72
2023/04/19 09:19:00;;;;;;;;;;;410.40;2355.20;;;;;;5033445;28;19909;-73
2023/04/19 09:21:30;;;;;;;;;;;410.40;2355.20;;;;;;5033712;28;19916;-73
2023/04/19 09:23:56;;;;;;;;;;;410.40;2304.00;;;;;;5033351;28;19911;-77
2023/04/19 09:26:22;;;;;;;;;;;410.20;2304.00;;;;;;5033496;28;19905;-74
2023/04/19 09:28:56;;;;;;;;;;;410.30;2355.20;;;;;;5033304;28;19987;-75
2023/04/19 09:31:23;;;;;;;;;;;410.30;2355.20;;;;;;5033276;28;19905;-73
2023/04/19 09:33:48;;;;;;;;;;;410.50;2355.20;;;;;;5033406;28;19917;-73
2023/04/19 09:36:29;;;;;;;;;;;435.20;2355.20;;;;;;5033230;28;19940;-73
2023/04/19 09:38:55;;;;;;;;;;;435.20;2355.20;;;;;;5021923;28;20019;-74
2023/04/19 09:41:20;;;;;;;;;;;435.30;2355.20;;;;;;5033204;28;19920;-75
2023/04/19 09:43:46;;;;;;;;;;;435.40;2355.20;;;;;;5033101;28;20341;-73
2023/04/19 09:46:28;;;;;;;;;;;435.30;2355.20;;;;;;5033158;28;19905;-73
2023/04/19 09:48:54;;;;;;;;;;;435.50;2355.20;;;;;;5033606;28;19948;-76
2023/04/19 09:51:20;;;;;;;;;;;435.50;2355.20;;;;;;5033182;28;19905;-73
2023/04/19 09:53:47;;;;;;;;;;;435.50;2355.20;;;;;;5033328;28;19909;-76
2023/04/19 09:56:13;;;;;;;;;;;435.60;2355.20;;;;;;5032964;28;19913;-78
2023/04/19 09:58:38;;;;;;;;;;;435.50;2304.00;;;;;;5032987;28;19983;-75
2023/04/19 10:01:04;;;;;;;;;;;435.50;2304.00;;;;;;5033097;28;19991;-73
2023/04/19 10:03:30;;;;;;;;;;;435.60;2355.20;;;;;;5033137;28;19920;-73
2023/04/19 10:05:56;;;;;;;;;;;435.90;2355.20;;;;;;5033085;28;19913;-76
2023/04/19 10:08:22;;;;;;;;;;;436.10;2329.60;;;;;;5033059;28;19959;-74
2023/04/19 10:10:53;;;;;;;;;;;460.80;1971.20;;;;;;5032900;28;20357;-77
2023/04/19 10:13:22;;;;;;;;;;;461.10;1996.80;;;;;;5034786;28;19905;-72
2023/04/19 10:15:48;;;;;;;;;;;461.60;1843.20;;;;;;5036654;28;20432;-73
2023/04/19 10:18:13;;;;;;;;;;;486.40;1766.40;;;;;;5036745;28;20005;-73
2023/04/19 10:20:48;;;;;;;;;;;461.50;1715.20;;;;;;5037149;28;20051;-73
2023/04/19 10:23:14;;;;;;;;;;;461.40;1689.60;;;;;;5036629;28;19920;-74
2023/04/19 10:25:44;;;;;;;;;;;461.50;1766.40;;;;;;5036430;28;19909;-73
2023/04/19 10:28:09;;;;;;;;;;;461.70;1792.00;;;;;;5036530;28;19905;-77
2023/04/19 10:30:35;;;;;;;;;;;461.70;1740.80;;;;;;5036152;28;20383;-72
2023/04/19 10:33:03;;;;;;;;;;;461.30;1689.60;;;;;;5036368;28;19928;-74
2023/04/19 10:35:36;;;;;;;;;;;461.20;1715.20;;;;;;5036263;28;19913;-73
2023/04/19 10:38:01;;;;;;;;;;;461.40;1740.80;;;;;;5036195;28;19905;-73
2023/04/19 10:40:50;;;;;;;;;;;461.40;1766.40;;;;;;5036320;28;19996;-73
2023/04/19 10:43:19;;;;;;;;;;;461.40;1740.80;;;;;;5033137;28;19959;-74
2023/04/19 10:45:45;;;;;;;;;;;461.30;1766.40;;;;;;5036239;28;20004;-76
2023/04/19 10:48:29;;;;;;;;;;;461.00;1843.20;;;;;;5036160;28;20341;-76
2023/04/19 10:50:58;;;;;;;;;;;460.90;1920.00;;;;;;5036227;28;19911;-73
2023/04/19 10:53:43;;;;;;;;;;;436.00;1996.80;;;;;;5023490;28;19905;-76
2023/04/19 10:56:08;;;;;;;;;;;435.90;1971.20;;;;;;5035736;28;19975;-77
2023/04/19 10:59:06;;;;;;;;;;;435.70;1945.60;;;;;;5036045;28;19904;-75
2023/04/19 11:01:42;;;;;;;;;;;435.50;2073.60;;;;;;5073665;28;19962;-73
2023/04/19 11:04:08;;;;;;;;;;;435.40;2278.40;;;;;;5060082;28;19913;-72
2023/04/19 11:06:35;;;;;;;;;;;435.30;2304.00;;;;;;5073598;28;20012;-73
2023/04/19 11:09:09;;;;;;;;;;;435.30;2252.80;;;;;;5060984;28;20008;-72
2023/04/19 11:11:35;;;;;;;;;;;435.30;2227.20;;;;;;5053555;28;19920;-71
2023/04/19 11:14:01;;;;;;;;;;;435.30;2227.20;;;;;;5053605;28;19904;-72
2023/04/19 11:16:27;;;;;;;;;;;435.20;2124.80;;;;;;5053003;28;19939;-73
2023/04/19 11:18:53;;;;;;;;;;;435.20;2124.80;;;;;;5061963;28;19905;-72
2023/04/19 11:21:19;;;;;;;;;;;410.50;2048.00;;;;;;5072381;28;19904;-73
2023/04/19 11:23:46;;;;;;;;;;;435.20;2022.40;;;;;;5072579;28;19934;-77
2023/04/19 11:26:12;;;;;;;;;;;435.20;2099.20;;;;;;5072597;28;19904;-74
2023/04/19 11:28:38;;;;;;;;;;;410.50;2022.40;;;;;;5072139;28;19958;-73
2023/04/19 11:31:04;;;;;;;;;;;410.50;2048.00;;;;;;5073049;28;19951;-72
2023/04/19 11:33:33;;;;;;;;;;;410.50;2022.40;;;;;;5069809;28;19963;-71
2023/04/19 11:35:58;;;;;;;;;;;410.50;2124.80;;;;;;5036391;28;20288;-73
2023/04/19 11:38:26;;;;;;;;;;;410.50;2124.80;;;;;;5035265;28;19905;-72
2023/04/19 11:41:01;;;;;;;;;;;410.30;2176.00;;;;;;5035311;28;20111;-72
2023/04/19 11:43:36;;;;;;;;;;;410.40;2252.80;;;;;;5034889;28;19913;-75
2023/04/19 11:46:05;;;;;;;;;;;410.50;2227.20;;;;;;5035322;28;19951;-73
2023/04/19 11:48:31;;;;;;;;;;;435.20;2150.40;;;;;;5037818;28;19912;-78
2023/04/19 11:50:57;;;;;;;;;;;435.40;2124.80;;;;;;5037044;28;19999;-72
2023/04/19 11:53:24;;;;;;;;;;;435.50;2150.40;;;;;;5034937;28;19912;-75
2023/04/19 11:55:57;;;;;;;;;;;435.70;2176.00;;;;;;5034716;28;19912;-74
2023/04/19 11:58:30;;;;;;;;;;;436.10;2150.40;;;;;;5034346;28;19905;-73
2023/04/19 12:01:09;;;;;;;;;;;461.00;1996.80;;;;;;5034735;28;20277;-72
2023/04/19 12:03:39;;;;;;;;;;;461.10;1996.80;;;;;;5034649;28;19963;-73
2023/04/19 12:06:09;;;;;;;;;;;461.10;1817.60;;;;;;5034712;28;19905;-72
2023/04/19 12:08:36;;;;;;;;;;;461.00;1868.80;;;;;;5034373;28;19905;-76
2023/04/19 12:11:02;;;;;;;;;;;460.90;1868.80;;;;;;5034600;28;20349;-73
2023/04/19 12:13:29;;;;;;;;;;;460.90;1817.60;;;;;;5031285;28;20276;-72
2023/04/19 12:15:55;;;;;;;;;;;461.10;1689.60;;;;;;5027491;28;19913;-72
2023/04/19 12:18:21;;;;;;;;;;;461.20;1766.40;;;;;;5038562;28;19909;-72
2023/04/19 12:20:47;;;;;;;;;;;461.20;1843.20;;;;;;5029553;28;19905;-71
2023/04/19 12:23:14;;;;;;;;;;;460.90;1792.00;;;;;;5042616;28;19905;-73
2023/04/19 12:25:40;;;;;;;;;;;460.90;1740.80;;;;;;5035113;28;19912;-73
2023/04/19 12:28:06;;;;;;;;;;;460.90;1792.00;;;;;;5037757;28;19952;-72
2023/04/19 12:30:32;;;;;;;;;;;461.00;1792.00;;;;;;5025532;28;20408;-72
2023/04/19 12:32:58;;;;;;;;;;;461.40;1740.80;;;;;;5026657;28;19924;-72
2023/04/19 12:35:25;;;;;;;;;;;461.70;1689.60;;;;;;5025754;28;20020;-71
2023/04/19 12:37:51;;;;;;;;;;;461.70;1689.60;;;;;;5028886;28;19905;-72
2023/04/19 12:40:17;;;;;;;;;;;461.50;1689.60;;;;;;5034234;28;19936;-73
2023/04/19 12:42:42;;;;;;;;;;;486.40;1664.00;;;;;;5027640;28;20459;-72
2023/04/19 12:45:08;;;;;;;;;;;461.70;1715.20;;;;;;5029617;28;19905;-72
2023/04/19 12:47:34;;;;;;;;;;;461.60;1740.80;;;;;;5029560;28;19951;-72
2023/04/19 12:50:00;;;;;;;;;;;461.40;1792.00;;;;;;5028688;28;19909;-72
2023/04/19 12:52:26;;;;;;;;;;;461.20;1843.20;;;;;;5033071;28;19956;-72
2023/04/19 12:54:51;;;;;;;;;;;461.00;1817.60;;;;;;5027953;28;19959;-71
2023/04/19 12:57:17;;;;;;;;;;;460.90;1843.20;;;;;;5029089;28;19917;-70
2023/04/19 12:59:42;;;;;;;;;;;436.00;1843.20;;;;;;5031525;28;19912;-73
2023/04/19 13:02:08;;;;;;;;;;;436.00;1894.40;;;;;;5034926;28;19916;-72
2023/04/19 13:04:34;;;;;;;;;;;460.80;1868.80;;;;;;5031217;28;19947;-72
2023/04/19 13:07:00;;;;;;;;;;;461.20;1868.80;;;;;;5038464;28;19905;-71
2023/04/19 13:09:26;;;;;;;;;;;461.40;1843.20;;;;;;5031658;28;19916;-73
2023/04/19 13:11:53;;;;;;;;;;;486.40;1792.00;;;;;;5031918;28;19905;-72
2023/04/19 13:14:18;;;;;;;;;;;486.70;1817.60;;;;;;5036780;28;19904;-72
2023/04/19 13:16:44;;;;;;;;;;;487.10;1817.60;;;;;;5029327;28;19914;-73
2023/04/19 13:19:10;;;;;;;;;;;487.30;1766.40;;;;;;5038047;28;19913;-72
2023/04/19 13:21:35;;;;;;;;;;;487.30;1689.60;;;;;;5034973;28;20365;-73
2023/04/19 13:24:01;;;;;;;;;;;512.10;1689.60;;;;;;5035625;28;19912;-72
2023/04/19 13:26:26;;;;;;;;;;;487.30;1715.20;;;;;;5031533;28;19988;-72
2023/04/19 13:28:52;;;;;;;;;;;487.00;1715.20;;;;;;5027312;28;19927;-72
2023/04/19 13:31:17;;;;;;;;;;;486.80;1766.40;;;;;;5035410;28;20004;-72
2023/04/19 13:33:43;;;;;;;;;;;486.60;1792.00;;;;;;5030828;28;19913;-72
2023/04/19 13:36:08;;;;;;;;;;;486.50;1792.00;;;;;;5034759;28;20011;-73
2023/04/19 13:38:34;;;;;;;;;;;486.50;1868.80;;;;;;5027124;28;19928;-72